Time;durP1;ratioP1;P1;durP2;ratioP2;P2;SDS_P1;SDS_P2;PMS_P1;PMS_P2;Temp;Humidity;BMP_temperature;BMP_pressure;BME280_temperature;BME280_humidity;BME280_pressure;Samples;Min_cycle;Max_cycle;Signal;HPM_P1;HPM_P2
2024/01/22 00:01:14;;;;;;;9.00;4.00;;;6.50;96.40;;;;;;5010357;28;20428;-78
2024/01/22 00:03:40;;;;;;;8.10;4.00;;;6.50;96.30;;;;;;4992067;28;20515;-78
2024/01/22 00:06:05;;;;;;;7.18;3.70;;;6.50;96.70;;;;;;5010739;28;20400;-78
2024/01/22 00:08:31;;;;;;;9.23;4.10;;;6.60;97.10;;;;;;5010752;28;20463;-78
2024/01/22 00:10:56;;;;;;;9.90;4.32;;;6.60;96.90;;;;;;5004282;28;20524;-78
2024/01/22 00:13:22;;;;;;;9.67;4.40;;;6.60;97.10;;;;;;5008993;28;20432;-78
2024/01/22 00:15:48;;;;;;;9.88;4.35;;;6.60;97.40;;;;;;5021000;28;20411;-78
2024/01/22 00:18:13;;;;;;;9.80;3.53;;;6.60;97.60;;;;;;5008545;28;20456;-78
2024/01/22 00:20:39;;;;;;;8.70;3.93;;;6.60;97.80;;;;;;5008116;28;20439;-78
2024/01/22 00:23:05;;;;;;;9.75;4.22;;;6.70;98.10;;;;;;5010061;28;20404;-78
2024/01/22 00:25:30;;;;;;;7.75;4.18;;;6.70;98.20;;;;;;5010108;28;20786;-78
2024/01/22 00:27:56;;;;;;;9.07;4.40;;;6.70;98.30;;;;;;5008908;28;20432;-78
2024/01/22 00:30:22;;;;;;;10.07;4.45;;;6.70;98.40;;;;;;5010278;28;20699;-78
2024/01/22 00:32:47;;;;;;;9.37;4.30;;;6.70;98.50;;;;;;5010258;28;20484;-78
2024/01/22 00:35:13;;;;;;;8.40;4.07;;;6.70;98.50;;;;;;5009875;28;20461;-77
2024/01/22 00:37:40;;;;;;;7.20;3.90;;;6.80;98.60;;;;;;5008763;28;20401;-78
2024/01/22 00:40:06;;;;;;;8.40;4.13;;;6.80;98.70;;;;;;5008046;28;20476;-78
2024/01/22 00:42:31;;;;;;;8.80;3.97;;;6.90;98.40;;;;;;5018933;28;20422;-78
2024/01/22 00:44:57;;;;;;;8.17;3.80;;;6.90;98.30;;;;;;5011334;28;20421;-78
2024/01/22 00:47:23;;;;;;;7.55;3.55;;;6.90;98.20;;;;;;5019026;28;21183;-78
2024/01/22 00:49:48;;;;;;;8.30;3.87;;;6.90;98.20;;;;;;5020893;28;20418;-78
2024/01/22 00:52:14;;;;;;;7.50;3.70;;;7.00;98.30;;;;;;5014473;28;20920;-78
2024/01/22 00:54:39;;;;;;;8.30;3.93;;;7.00;98.30;;;;;;5008120;28;20471;-79
2024/01/22 00:57:05;;;;;;;6.60;3.33;;;7.10;98.00;;;;;;5008859;28;20401;-78
2024/01/22 00:59:30;;;;;;;10.63;3.80;;;7.10;97.70;;;;;;5008426;28;20809;-77
2024/01/22 01:01:56;;;;;;;7.00;3.70;;;7.20;97.50;;;;;;4991203;28;20432;-78
2024/01/22 01:04:22;;;;;;;8.17;3.87;;;7.30;97.20;;;;;;5008565;28;20439;-78
2024/01/22 01:06:47;;;;;;;9.90;4.10;;;7.30;97.10;;;;;;5008828;28;20786;-77
2024/01/22 01:09:13;;;;;;;8.33;4.10;;;7.30;97.10;;;;;;5009837;28;20424;-78
2024/01/22 01:11:38;;;;;;;9.20;4.05;;;7.20;97.10;;;;;;5008661;28;20479;-78
2024/01/22 01:14:04;;;;;;;7.53;3.50;;;7.20;97.40;;;;;;5009102;28;20404;-78
2024/01/22 01:16:30;;;;;;;7.40;3.77;;;7.20;97.50;;;;;;5007571;28;20456;-78
2024/01/22 01:18:55;;;;;;;8.40;4.07;;;7.20;97.70;;;;;;5008419;28;20436;-77
2024/01/22 01:21:22;;;;;;;7.57;3.77;;;7.20;98.10;;;;;;5007761;28;20575;-78
2024/01/22 01:23:49;;;;;;;8.63;3.63;;;7.30;98.20;;;;;;5007672;28;20401;-78
2024/01/22 01:26:15;;;;;;;7.63;3.92;;;7.30;98.00;;;;;;5006789;28;21191;-78
2024/01/22 01:28:40;;;;;;;7.65;3.92;;;7.30;98.40;;;;;;5009723;28;20417;-77
2024/01/22 01:31:06;;;;;;;6.17;3.77;;;7.40;98.60;;;;;;5007659;28;20421;-78
2024/01/22 01:33:32;;;;;;;9.30;4.38;;;7.40;98.50;;;;;;5007001;28;20515;-77
2024/01/22 01:35:58;;;;;;;8.80;3.97;;;7.30;98.70;;;;;;5007826;28;20514;-77
2024/01/22 01:38:24;;;;;;;8.63;3.78;;;7.30;98.60;;;;;;5007319;28;20760;-77
2024/01/22 01:40:49;;;;;;;8.48;3.80;;;7.30;99.20;;;;;;5015538;28;20920;-77
2024/01/22 01:43:17;;;;;;;6.77;4.13;;;7.20;99.90;;;;;;5007931;28;20412;-78
2024/01/22 01:45:42;;;;;;;7.65;3.47;;;7.20;99.90;;;;;;5021082;28;20432;-77
2024/01/22 01:48:08;;;;;;;9.30;3.93;;;7.30;99.90;;;;;;4990033;28;20452;-77
2024/01/22 01:50:34;;;;;;;9.90;4.13;;;7.30;99.90;;;;;;4990374;28;20482;-77
2024/01/22 01:53:00;;;;;;;7.72;4.18;;;7.30;99.90;;;;;;5008110;28;20436;-77
2024/01/22 01:55:28;;;;;;;5.40;3.40;;;7.30;99.90;;;;;;5007680;28;20444;-77
2024/01/22 01:57:55;;;;;;;6.77;3.57;;;7.30;99.90;;;;;;4990087;28;20945;-74
2024/01/22 02:00:21;;;;;;;7.53;4.20;;;7.40;99.90;;;;;;4990297;28;20440;-76
2024/01/22 02:02:46;;;;;;;8.68;4.30;;;7.40;99.90;;;;;;5009119;28;20511;-75
2024/01/22 02:05:16;;;;;;;10.68;4.20;;;7.40;99.90;;;;;;5009415;28;20416;-75
2024/01/22 02:07:42;;;;;;;8.38;3.80;;;7.40;99.90;;;;;;5009733;28;20470;-76
2024/01/22 02:10:14;;;;;;;6.82;3.97;;;7.40;99.90;;;;;;4991319;28;20421;-76
2024/01/22 02:12:40;;;;;;;8.20;3.75;;;7.40;99.90;;;;;;5009145;28;20428;-76
2024/01/22 02:15:06;;;;;;;7.33;3.97;;;7.40;99.90;;;;;;4990560;28;20413;-76
2024/01/22 02:17:32;;;;;;;9.52;4.00;;;7.50;99.90;;;;;;4990348;28;20424;-77
2024/01/22 02:19:57;;;;;;;8.33;4.03;;;7.60;99.90;;;;;;4990780;28;20432;-77
2024/01/22 02:22:23;;;;;;;8.87;4.57;;;7.60;99.90;;;;;;5007352;28;20467;-77
2024/01/22 02:24:49;;;;;;;9.98;3.92;;;7.50;99.90;;;;;;4995901;28;20480;-77
2024/01/22 02:27:15;;;;;;;8.20;4.40;;;7.50;99.90;;;;;;4990300;28;20413;-76
2024/01/22 02:29:41;;;;;;;10.23;4.63;;;7.50;99.90;;;;;;5001053;28;20400;-76
2024/01/22 02:32:07;;;;;;;7.83;4.50;;;7.50;99.90;;;;;;5009151;28;20427;-76
2024/01/22 02:34:33;;;;;;;7.90;3.90;;;7.60;99.90;;;;;;5007211;28;20451;-75
2024/01/22 02:36:58;;;;;;;6.88;4.65;;;7.60;99.90;;;;;;5008729;28;20401;-75
2024/01/22 02:39:24;;;;;;;9.07;4.40;;;7.50;99.90;;;;;;4977855;28;20488;-75
2024/01/22 02:41:50;;;;;;;9.07;3.90;;;7.50;99.90;;;;;;5005547;28;20813;-76
2024/01/22 02:44:15;;;;;;;7.80;4.60;;;7.60;99.90;;;;;;5010540;28;20459;-75
2024/01/22 02:46:41;;;;;;;7.22;4.20;;;7.70;99.90;;;;;;5028226;28;20395;-75
2024/01/22 02:49:09;;;;;;;6.87;4.33;;;7.70;99.90;;;;;;5016754;28;20421;-75
2024/01/22 02:51:35;;;;;;;7.47;4.10;;;7.70;99.90;;;;;;5028166;28;20411;-75
2024/01/22 02:54:00;;;;;;;8.77;3.80;;;7.70;99.90;;;;;;5021503;28;20944;-75
2024/01/22 02:56:26;;;;;;;8.17;3.90;;;7.80;99.90;;;;;;5010967;28;20408;-75
2024/01/22 02:58:51;;;;;;;8.57;3.88;;;7.80;99.90;;;;;;5011048;28;20854;-75
2024/01/22 03:01:17;;;;;;;6.73;3.47;;;7.90;99.90;;;;;;5010510;28;20420;-76
2024/01/22 03:03:43;;;;;;;8.38;3.42;;;7.90;99.90;;;;;;5010701;28;20565;-75
2024/01/22 03:06:08;;;;;;;6.65;3.47;;;8.00;99.90;;;;;;5010862;28;20444;-75
2024/01/22 03:08:34;;;;;;;8.57;3.97;;;8.00;99.90;;;;;;5011067;28;20491;-76
2024/01/22 03:11:00;;;;;;;5.93;3.20;;;8.00;99.90;;;;;;5011665;28;20431;-76
2024/01/22 03:13:26;;;;;;;7.38;4.00;;;8.10;99.90;;;;;;4993551;28;20437;-76
2024/01/22 03:15:51;;;;;;;8.63;3.88;;;8.10;99.90;;;;;;5011730;28;21423;-76
2024/01/22 03:18:17;;;;;;;10.47;3.50;;;8.10;99.90;;;;;;5010077;28;20825;-75
2024/01/22 03:20:42;;;;;;;6.72;3.60;;;8.10;99.90;;;;;;5014545;28;20428;-76
2024/01/22 03:23:09;;;;;;;8.03;3.67;;;8.10;99.90;;;;;;5016635;28;20403;-75
2024/01/22 03:25:34;;;;;;;5.57;2.95;;;8.10;99.90;;;;;;5016472;28;20449;-75
2024/01/22 03:28:00;;;;;;;7.07;3.30;;;8.20;99.90;;;;;;5011736;28;20755;-76
2024/01/22 03:30:25;;;;;;;7.93;3.27;;;8.20;99.90;;;;;;5016442;28;20432;-76
2024/01/22 03:32:51;;;;;;;6.10;3.30;;;8.20;99.90;;;;;;5014783;28;20409;-76
2024/01/22 03:35:16;;;;;;;7.30;3.53;;;8.30;99.90;;;;;;5012085;28;20957;-76
2024/01/22 03:37:42;;;;;;;7.30;3.70;;;8.30;99.90;;;;;;5016790;28;20397;-76
2024/01/22 03:40:09;;;;;;;6.13;3.47;;;8.30;99.90;;;;;;5009666;28;20432;-75
2024/01/22 03:42:36;;;;;;;6.90;3.67;;;8.30;99.90;;;;;;5010011;28;20424;-76
2024/01/22 03:45:02;;;;;;;7.35;3.88;;;8.20;99.90;;;;;;5012940;28;20408;-76
2024/01/22 03:47:28;;;;;;;7.25;3.80;;;8.30;99.90;;;;;;5010268;28;20420;-76
2024/01/22 03:49:53;;;;;;;7.20;3.45;;;8.30;99.90;;;;;;5010023;28;20458;-76
2024/01/22 03:52:19;;;;;;;7.60;4.23;;;8.20;99.90;;;;;;5015816;28;20464;-76
2024/01/22 03:54:44;;;;;;;5.83;3.47;;;8.30;99.90;;;;;;5009761;28;20408;-75
2024/01/22 03:57:10;;;;;;;6.75;4.07;;;8.30;99.90;;;;;;5013536;28;21244;-76
2024/01/22 03:59:37;;;;;;;6.97;3.97;;;8.30;99.90;;;;;;5010068;28;20479;-76
2024/01/22 04:02:03;;;;;;;7.28;3.78;;;8.30;99.90;;;;;;5010580;28;20420;-76
2024/01/22 04:04:29;;;;;;;5.68;3.50;;;8.30;99.90;;;;;;5010411;28;20523;-76
2024/01/22 04:06:55;;;;;;;4.88;3.22;;;8.30;99.90;;;;;;5011068;28;20841;-76
2024/01/22 04:09:20;;;;;;;5.05;3.17;;;8.30;99.90;;;;;;5008753;28;20413;-76
2024/01/22 04:11:46;;;;;;;6.70;3.47;;;8.30;99.90;;;;;;4992401;28;20425;-76
2024/01/22 04:14:11;;;;;;;5.85;3.42;;;8.30;99.90;;;;;;4992319;28;20429;-76
2024/01/22 04:16:37;;;;;;;5.47;3.40;;;8.40;99.90;;;;;;5009934;28;20566;-76
2024/01/22 04:19:03;;;;;;;6.95;3.63;;;8.40;99.90;;;;;;5010412;28;20460;-76
2024/01/22 04:21:30;;;;;;;8.33;3.47;;;8.40;99.90;;;;;;5009674;28;20425;-76
2024/01/22 04:23:55;;;;;;;5.80;2.80;;;8.40;99.90;;;;;;5009764;28;20488;-76
2024/01/22 04:26:21;;;;;;;7.55;3.45;;;8.40;99.90;;;;;;4997031;28;20871;-76
2024/01/22 04:28:46;;;;;;;5.37;3.13;;;8.40;99.90;;;;;;5015592;28;20431;-76
2024/01/22 04:31:12;;;;;;;5.40;2.70;;;8.40;99.90;;;;;;4993954;28;21256;-76
2024/01/22 04:33:38;;;;;;;6.28;3.03;;;8.50;99.90;;;;;;4999614;28;20456;-76
2024/01/22 04:36:04;;;;;;;4.95;2.70;;;8.50;99.90;;;;;;4992967;28;20414;-76
2024/01/22 04:38:30;;;;;;;5.20;2.90;;;8.50;99.90;;;;;;5006171;28;20438;-76
2024/01/22 04:40:56;;;;;;;5.85;3.28;;;8.50;99.90;;;;;;4992380;28;20424;-76
2024/01/22 04:43:23;;;;;;;4.95;2.90;;;8.50;99.90;;;;;;4998974;28;20423;-76
2024/01/22 04:45:49;;;;;;;4.85;3.00;;;8.60;99.90;;;;;;5004998;28;20931;-76
2024/01/22 04:48:14;;;;;;;4.75;2.75;;;8.60;99.90;;;;;;5000395;28;20462;-76
2024/01/22 04:50:40;;;;;;;4.68;2.30;;;8.60;99.90;;;;;;4989795;28;20456;-76
2024/01/22 04:53:06;;;;;;;5.00;2.30;;;8.70;99.90;;;;;;5001620;28;20434;-76
2024/01/22 04:55:31;;;;;;;4.10;2.25;;;8.70;99.90;;;;;;5004213;28;20410;-76
2024/01/22 04:57:57;;;;;;;4.32;2.67;;;8.70;99.90;;;;;;4997076;28;20515;-77
2024/01/22 05:00:23;;;;;;;3.97;2.40;;;8.70;99.90;;;;;;4999604;28;20832;-77
2024/01/22 05:02:48;;;;;;;3.88;2.30;;;8.80;99.90;;;;;;4992675;28;20873;-77
2024/01/22 05:05:14;;;;;;;3.33;2.00;;;8.80;99.90;;;;;;4998278;28;20822;-77
2024/01/22 05:07:40;;;;;;;4.85;2.05;;;8.90;99.90;;;;;;5007035;28;20413;-77
2024/01/22 05:10:09;;;;;;;4.72;2.15;;;8.90;99.90;;;;;;4997075;28;20434;-77
2024/01/22 05:12:35;;;;;;;3.60;2.10;;;8.90;99.90;;;;;;4997004;28;20853;-77
2024/01/22 05:15:01;;;;;;;4.72;2.20;;;8.90;99.90;;;;;;5006464;28;20466;-77
2024/01/22 05:17:28;;;;;;;3.67;2.17;;;8.90;99.90;;;;;;5003039;28;20890;-77
2024/01/22 05:19:54;;;;;;;4.30;2.20;;;9.00;99.90;;;;;;5002328;28;20921;-77
2024/01/22 05:22:20;;;;;;;4.00;1.90;;;9.00;99.90;;;;;;4998008;28;20436;-77
2024/01/22 05:24:45;;;;;;;4.43;1.70;;;9.10;99.90;;;;;;5002529;28;20416;-77
2024/01/22 05:27:11;;;;;;;3.90;2.10;;;9.10;99.90;;;;;;4999180;28;20455;-77
2024/01/22 05:29:37;;;;;;;3.92;1.90;;;9.10;99.90;;;;;;4996363;28;20780;-77
2024/01/22 05:32:03;;;;;;;2.83;1.90;;;9.10;99.90;;;;;;4990958;28;20512;-77
2024/01/22 05:34:29;;;;;;;2.70;1.80;;;9.20;99.90;;;;;;5003272;28;20454;-77
2024/01/22 05:36:55;;;;;;;3.67;1.70;;;9.20;99.90;;;;;;4986385;28;20422;-76
2024/01/22 05:39:21;;;;;;;4.15;1.85;;;9.20;99.90;;;;;;4997627;28;20433;-77
2024/01/22 05:41:46;;;;;;;3.20;1.90;;;9.30;99.90;;;;;;4994688;28;20472;-76
2024/01/22 05:44:12;;;;;;;2.65;1.55;;;9.30;99.90;;;;;;5004395;28;20408;-76
2024/01/22 05:46:37;;;;;;;3.20;1.93;;;9.30;99.90;;;;;;4999065;28;21076;-77
2024/01/22 05:49:03;;;;;;;4.18;1.77;;;9.30;99.90;;;;;;5003593;28;20415;-77
2024/01/22 05:51:29;;;;;;;3.40;2.13;;;9.40;99.90;;;;;;5001433;28;20431;-77
2024/01/22 05:53:54;;;;;;;3.78;1.65;;;9.40;99.90;;;;;;5004170;28;20442;-77
2024/01/22 05:56:21;;;;;;;3.70;2.00;;;9.50;99.90;;;;;;5000259;28;20414;-77
2024/01/22 05:58:48;;;;;;;4.00;1.70;;;9.50;99.90;;;;;;5004035;28;20417;-76
2024/01/22 06:01:20;;;;;;;2.63;1.42;;;9.60;99.90;;;;;;5004867;28;20432;-77
2024/01/22 06:03:46;;;;;;;3.08;1.73;;;9.60;99.90;;;;;;5005508;28;20432;-77
2024/01/22 06:06:12;;;;;;;3.47;1.60;;;9.60;99.90;;;;;;5002713;28;21002;-77
2024/01/22 06:08:39;;;;;;;3.00;1.27;;;9.60;99.90;;;;;;4992246;28;20416;-77
2024/01/22 06:11:07;;;;;;;2.45;1.23;;;9.60;99.90;;;;;;4994598;28;20865;-77
2024/01/22 06:13:38;;;;;;;2.97;1.20;;;9.70;99.90;;;;;;4996202;28;20432;-77
2024/01/22 06:16:09;;;;;;;3.47;1.50;;;9.70;99.90;;;;;;5003009;28;20470;-77
2024/01/22 06:18:35;;;;;;;2.93;1.23;;;9.70;99.90;;;;;;5000837;28;20964;-77
2024/01/22 06:21:02;;;;;;;4.72;1.60;;;9.70;99.90;;;;;;5002356;28;20424;-77
2024/01/22 06:23:27;;;;;;;4.82;1.10;;;9.70;99.90;;;;;;4990694;28;20474;-77
2024/01/22 06:25:53;;;;;;;4.22;1.77;;;9.70;99.90;;;;;;5006459;28;20469;-78
2024/01/22 06:28:19;;;;;;;6.15;1.77;;;9.70;99.90;;;;;;5007252;28;20423;-77
2024/01/22 06:30:44;;;;;;;5.07;1.50;;;9.70;99.90;;;;;;5009064;28;20407;-77
2024/01/22 06:33:10;;;;;;;5.10;1.52;;;9.70;99.90;;;;;;5016698;28;20408;-78
2024/01/22 06:35:36;;;;;;;6.23;1.70;;;9.70;99.90;;;;;;5011606;28;20420;-78
2024/01/22 06:38:02;;;;;;;5.43;1.40;;;9.70;99.90;;;;;;4992286;28;20797;-77
2024/01/22 06:40:29;;;;;;;5.95;1.33;;;9.70;99.90;;;;;;5020027;28;20846;-77
2024/01/22 06:42:54;;;;;;;5.70;1.23;;;9.80;99.90;;;;;;5010706;28;20470;-77
2024/01/22 06:45:20;;;;;;;6.05;1.50;;;9.90;99.90;;;;;;5025968;28;20412;-77
2024/01/22 06:47:46;;;;;;;4.57;1.20;;;9.90;99.90;;;;;;5011453;28;20408;-77
2024/01/22 06:50:12;;;;;;;4.20;1.17;;;9.90;99.90;;;;;;5011112;28;20914;-77
2024/01/22 06:52:37;;;;;;;6.45;1.20;;;9.90;99.90;;;;;;5011200;28;20440;-77
2024/01/22 06:55:07;;;;;;;4.57;1.10;;;9.90;99.90;;;;;;4993522;28;20447;-77
2024/01/22 06:57:33;;;;;;;6.55;1.25;;;10.00;99.90;;;;;;5010781;28;20420;-75
2024/01/22 06:59:59;;;;;;;7.40;1.40;;;10.00;99.90;;;;;;5011881;28;20440;-75
2024/01/22 07:02:26;;;;;;;7.03;1.25;;;10.00;99.90;;;;;;5010659;28;20420;-76
2024/01/22 07:04:52;;;;;;;8.35;1.50;;;10.10;99.90;;;;;;5011620;28;20415;-76
2024/01/22 07:07:18;;;;;;;7.50;1.63;;;10.00;99.90;;;;;;4997825;28;20923;-76
2024/01/22 07:09:44;;;;;;;8.50;1.60;;;10.10;99.90;;;;;;4994112;28;20417;-76
2024/01/22 07:12:10;;;;;;;8.30;1.47;;;10.10;99.90;;;;;;5026302;28;20806;-76
2024/01/22 07:14:35;;;;;;;7.30;1.33;;;10.10;99.90;;;;;;4993399;28;20413;-76
2024/01/22 07:17:03;;;;;;;9.90;1.90;;;10.10;99.90;;;;;;5010293;28;20786;-76
2024/01/22 07:19:28;;;;;;;9.48;1.77;;;10.10;99.90;;;;;;5010613;28;20787;-76
2024/01/22 07:21:54;;;;;;;11.10;1.90;;;10.10;99.90;;;;;;5017363;28;20408;-76
2024/01/22 07:24:20;;;;;;;10.13;1.53;;;10.10;99.90;;;;;;5016593;28;20488;-76
2024/01/22 07:26:46;;;;;;;10.82;2.00;;;10.10;99.90;;;;;;5030233;28;20461;-76
2024/01/22 07:29:12;;;;;;;8.55;2.13;;;10.10;99.90;;;;;;5019297;28;20409;-76
2024/01/22 07:31:38;;;;;;;10.30;1.98;;;10.10;99.90;;;;;;5016867;28;20538;-76
2024/01/22 07:34:03;;;;;;;11.90;2.17;;;10.10;99.90;;;;;;5012169;28;20486;-76
2024/01/22 07:36:29;;;;;;;12.50;2.10;;;10.10;99.90;;;;;;5011962;28;20447;-76
2024/01/22 07:38:56;;;;;;;13.55;2.67;;;10.10;99.90;;;;;;4992193;28;20465;-76
2024/01/22 07:41:22;;;;;;;21.38;3.13;;;10.00;99.90;;;;;;5020676;28;20923;-76
2024/01/22 07:43:47;;;;;;;17.83;3.27;;;10.10;99.90;;;;;;5019984;28;20417;-76
2024/01/22 07:46:13;;;;;;;19.30;3.43;;;10.00;99.90;;;;;;5024594;28;20415;-76
2024/01/22 07:48:39;;;;;;;18.93;3.93;;;10.10;99.90;;;;;;5026740;28;20417;-76
2024/01/22 07:51:05;;;;;;;20.30;4.38;;;10.10;99.90;;;;;;5025777;28;20908;-76
2024/01/22 07:53:31;;;;;;;22.93;4.63;;;10.10;99.90;;;;;;5010951;28;20422;-76
2024/01/22 07:55:57;;;;;;;20.83;4.13;;;10.10;99.90;;;;;;5028066;28;20438;-76
2024/01/22 07:58:22;;;;;;;22.60;4.03;;;10.10;99.90;;;;;;5010327;28;20433;-77
2024/01/22 08:00:48;;;;;;;25.80;5.13;;;10.10;99.90;;;;;;5027217;28;20772;-76
2024/01/22 08:03:13;;;;;;;27.97;5.97;;;10.10;99.90;;;;;;5015807;28;20531;-76
2024/01/22 08:05:40;;;;;;;27.40;4.57;;;10.10;99.90;;;;;;5027594;28;20451;-76
2024/01/22 08:08:09;;;;;;;22.75;3.75;;;10.10;99.90;;;;;;5027622;28;20420;-76
2024/01/22 08:10:35;;;;;;;20.15;3.47;;;10.00;99.90;;;;;;5027806;28;20792;-76
2024/01/22 08:13:01;;;;;;;13.90;2.50;;;9.90;99.90;;;;;;5026821;28;20461;-76
2024/01/22 08:15:27;;;;;;;15.23;2.73;;;9.90;99.90;;;;;;5027162;28;20411;-76
2024/01/22 08:17:52;;;;;;;15.68;2.65;;;9.80;99.90;;;;;;5027659;28;20541;-76
2024/01/22 08:20:18;;;;;;;10.10;1.73;;;9.70;99.90;;;;;;5027481;28;20500;-75
2024/01/22 08:22:44;;;;;;;12.43;1.80;;;9.70;99.90;;;;;;5027351;28;20402;-76
2024/01/22 08:25:09;;;;;;;10.27;1.90;;;9.60;99.90;;;;;;5026846;28;20481;-76
2024/01/22 08:27:35;;;;;;;12.23;2.03;;;9.50;99.90;;;;;;5027825;28;20407;-76
2024/01/22 08:30:01;;;;;;;11.45;1.80;;;9.50;99.90;;;;;;5012595;28;20567;-75
2024/01/22 08:32:27;;;;;;;12.65;1.80;;;9.40;99.90;;;;;;5024158;28;20423;-76
2024/01/22 08:34:53;;;;;;;12.23;1.73;;;9.40;99.90;;;;;;5008747;28;20425;-76
2024/01/22 08:37:18;;;;;;;8.93;1.55;;;9.40;99.90;;;;;;5008198;28;20440;-75
2024/01/22 08:39:44;;;;;;;10.40;1.43;;;9.40;99.90;;;;;;5009399;28;20524;-76
2024/01/22 08:42:09;;;;;;;7.40;1.50;;;9.40;99.90;;;;;;5009188;28;20415;-76
2024/01/22 08:44:35;;;;;;;8.07;1.50;;;9.40;99.90;;;;;;5027383;28;20449;-76
2024/01/22 08:47:01;;;;;;;9.48;1.08;;;9.40;99.90;;;;;;5010915;28;20411;-76
2024/01/22 08:49:26;;;;;;;9.87;1.27;;;9.40;99.90;;;;;;5027350;28;20403;-76
2024/01/22 08:51:52;;;;;;;8.60;1.73;;;9.40;99.90;;;;;;5028332;28;20753;-76
2024/01/22 08:54:17;;;;;;;11.87;1.90;;;9.40;99.90;;;;;;5026159;28;20415;-76
2024/01/22 08:56:43;;;;;;;9.63;1.73;;;9.40;99.90;;;;;;5015651;28;20770;-76
2024/01/22 08:59:09;;;;;;;14.00;2.30;;;9.40;99.90;;;;;;5027629;28;20434;-76
2024/01/22 09:01:34;;;;;;;15.25;2.85;;;9.40;99.90;;;;;;5027777;28;20399;-76
2024/01/22 09:04:00;;;;;;;20.87;3.80;;;9.40;99.90;;;;;;5026745;28;20780;-76
2024/01/22 09:06:25;;;;;;;22.30;3.97;;;9.40;99.90;;;;;;5027592;28;20442;-76
2024/01/22 09:08:51;;;;;;;28.97;4.77;;;9.40;99.90;;;;;;5026434;28;20411;-76
2024/01/22 09:11:17;;;;;;;24.77;4.57;;;9.30;99.90;;;;;;5009601;28;20468;-76
2024/01/22 09:13:42;;;;;;;26.17;4.73;;;9.30;99.90;;;;;;5020707;28;20417;-76
2024/01/22 09:16:10;;;;;;;21.70;4.60;;;9.30;99.90;;;;;;5007363;28;20945;-76
2024/01/22 09:18:36;;;;;;;25.88;5.07;;;9.30;99.90;;;;;;4990322;28;20448;-76
2024/01/22 09:21:03;;;;;;;26.37;4.80;;;9.30;99.90;;;;;;5020140;28;20832;-76
2024/01/22 09:23:28;;;;;;;29.63;5.13;;;9.30;99.90;;;;;;5025145;28;20417;-76
2024/01/22 09:25:54;;;;;;;30.88;5.70;;;9.30;99.90;;;;;;5025158;28;20482;-76
2024/01/22 09:28:21;;;;;;;34.53;6.80;;;9.20;99.90;;;;;;5023615;28;20926;-75
2024/01/22 09:30:46;;;;;;;38.50;7.05;;;9.30;99.90;;;;;;4989898;28;20516;-76
2024/01/22 09:33:12;;;;;;;38.40;7.38;;;9.20;99.90;;;;;;5004590;28;20478;-76
2024/01/22 09:35:41;;;;;;;41.87;7.73;;;9.20;99.90;;;;;;4976236;28;20423;-76
2024/01/22 09:38:06;;;;;;;44.35;8.50;;;9.20;99.90;;;;;;5007626;28;20486;-76
2024/01/22 09:40:35;;;;;;;41.45;8.18;;;9.20;99.90;;;;;;5025252;28;20526;-76
2024/01/22 09:43:06;;;;;;;44.00;8.33;;;9.20;99.90;;;;;;5025347;28;20435;-76
2024/01/22 09:45:33;;;;;;;41.85;8.95;;;9.30;99.90;;;;;;5025126;28;20403;-76
2024/01/22 09:47:59;;;;;;;45.28;8.75;;;9.30;99.90;;;;;;5026401;28;20776;-76
2024/01/22 09:50:25;;;;;;;44.07;8.37;;;9.30;99.90;;;;;;5007408;28;20415;-76
2024/01/22 09:52:54;;;;;;;49.10;9.57;;;9.40;99.90;;;;;;5027690;28;20402;-77
2024/01/22 09:55:21;;;;;;;50.83;9.48;;;9.30;99.90;;;;;;5028839;28;20411;-76
2024/01/22 09:57:50;;;;;;;44.33;8.93;;;9.40;99.90;;;;;;5030199;28;20522;-76
2024/01/22 10:00:18;;;;;;;46.42;8.95;;;9.40;99.90;;;;;;5029331;28;20434;-76
2024/01/22 10:02:43;;;;;;;37.80;7.53;;;9.50;99.90;;;;;;5029678;28;20403;-76
2024/01/22 10:05:09;;;;;;;40.40;8.40;;;9.50;99.90;;;;;;5029417;28;20943;-76
2024/01/22 10:07:35;;;;;;;42.40;8.68;;;9.50;99.90;;;;;;5030239;28;20399;-76
2024/01/22 10:10:00;;;;;;;41.50;8.13;;;9.50;99.90;;;;;;5029789;28;20410;-76
2024/01/22 10:12:26;;;;;;;41.15;8.63;;;9.50;99.90;;;;;;5020858;28;20412;-76
2024/01/22 10:14:51;;;;;;;37.87;6.93;;;9.50;99.90;;;;;;5010658;28;20401;-76
2024/01/22 10:17:21;;;;;;;36.63;6.93;;;9.40;99.90;;;;;;5010650;28;20454;-76
2024/01/22 10:19:49;;;;;;;39.03;7.80;;;9.40;99.90;;;;;;5010745;28;20429;-76
2024/01/22 10:22:19;;;;;;;31.00;6.57;;;9.40;99.90;;;;;;5010045;28;20799;-76
2024/01/22 10:24:58;;;;;;;37.77;7.93;;;9.40;99.90;;;;;;5009470;28;20797;-76
2024/01/22 10:27:23;;;;;;;35.33;7.38;;;9.50;99.90;;;;;;5010186;28;20413;-76
2024/01/22 10:29:49;;;;;;;30.48;6.15;;;9.60;99.90;;;;;;4957673;28;1737345;-75
2024/01/22 10:32:20;;;;;;;32.00;7.37;;;9.70;99.90;;;;;;5030933;28;20828;-76
2024/01/22 10:34:50;;;;;;;31.63;6.22;;;9.80;99.90;;;;;;5011943;28;20417;-76
2024/01/22 10:37:17;;;;;;;30.58;6.55;;;9.80;99.90;;;;;;5011532;28;20487;-76
2024/01/22 10:39:44;;;;;;;31.60;6.05;;;9.80;99.90;;;;;;5009890;28;20441;-76
2024/01/22 10:42:11;;;;;;;30.90;7.05;;;9.90;99.90;;;;;;5010939;28;20456;-76
2024/01/22 10:44:39;;;;;;;35.58;7.13;;;9.90;99.90;;;;;;5011544;28;20413;-76
2024/01/22 10:47:06;;;;;;;31.10;6.90;;;10.00;99.90;;;;;;4994346;28;20421;-76
2024/01/22 10:49:32;;;;;;;37.23;6.47;;;10.20;99.90;;;;;;5011408;28;20411;-76
2024/01/22 10:51:59;;;;;;;35.05;6.47;;;10.70;99.90;;;;;;5012024;28;20773;-76
2024/01/22 10:54:29;;;;;;;36.35;6.63;;;11.10;99.90;;;;;;5011153;28;20980;-76
2024/01/22 10:57:35;;;;;;;32.95;6.18;;;11.40;94.60;;;;;;5012068;28;20798;-76
2024/01/22 11:00:06;;;;;;;26.67;6.03;;;11.60;91.90;;;;;;5011463;28;20428;-76
2024/01/22 11:02:34;;;;;;;28.67;6.25;;;11.70;90.50;;;;;;5011647;28;20404;-76
2024/01/22 11:05:13;;;;;;;29.33;5.82;;;11.80;86.00;;;;;;5012234;28;20419;-76
2024/01/22 11:07:40;;;;;;;24.17;4.85;;;11.90;85.60;;;;;;5011316;28;20425;-76
2024/01/22 11:10:13;;;;;;;25.80;5.03;;;11.80;75.30;;;;;;5012780;28;20772;-76
2024/01/22 11:12:48;;;;;;;24.27;5.03;;;11.80;78.10;;;;;;5027293;28;20452;-76
2024/01/22 11:15:14;;;;;;;21.27;4.68;;;12.10;78.00;;;;;;5012393;28;20941;-76
2024/01/22 11:17:40;;;;;;;21.67;4.78;;;12.40;71.00;;;;;;5011414;28;20420;-76
2024/01/22 11:20:16;;;;;;;26.15;4.88;;;12.70;60.50;;;;;;5012170;28;20864;-76
2024/01/22 11:22:42;;;;;;;17.30;3.65;;;13.00;27.40;;;;;;5012208;28;20460;-77
2024/01/22 11:25:13;;;;;;;21.95;4.60;;;13.30;29.80;;;;;;4993768;28;20444;-76
2024/01/22 11:27:43;;;;;;;18.60;3.83;;;13.60;11.70;;;;;;5012735;28;20405;-77
2024/01/22 11:30:20;;;;;;;17.60;3.50;;;14.00;25.60;;;;;;5000059;28;20407;-76
2024/01/22 11:32:47;;;;;;;19.98;3.60;;;14.10;4.50;;;;;;5017120;28;20429;-76
2024/01/22 11:35:30;;;;;;;18.90;4.35;;;13.90;1.00;;;;;;5015892;28;20488;-76
2024/01/22 11:37:56;;;;;;;20.02;4.38;;;13.70;1.00;;;;;;5023244;28;20408;-76
2024/01/22 11:40:46;;;;;;;20.98;4.38;;;13.20;1.00;;;;;;5010579;28;20429;-77
2024/01/22 11:43:12;;;;;;;20.10;3.97;;;12.80;1.00;;;;;;5010681;28;20469;-76
2024/01/22 11:45:38;;;;;;;18.33;3.92;;;12.70;3.80;;;;;;5025415;28;20416;-76
2024/01/22 11:48:24;;;;;;;22.80;4.50;;;12.70;11.40;;;;;;5010272;28;20404;-76
2024/01/22 11:51:00;;;;;;;24.13;4.55;;;12.50;17.00;;;;;;5010084;28;20572;-76
2024/01/22 11:53:26;;;;;;;23.70;4.57;;;12.20;17.70;;;;;;5010162;28;20404;-76
2024/01/22 11:56:05;;;;;;;21.23;4.05;;;11.90;13.70;;;;;;5015664;28;20424;-76
2024/01/22 11:58:33;;;;;;;23.83;4.93;;;11.70;16.40;;;;;;5029021;28;20407;-76
2024/01/22 12:01:05;;;;;;;22.40;4.15;;;11.50;23.20;;;;;;5045033;28;20403;-76
2024/01/22 12:03:31;;;;;;;20.88;3.85;;;11.40;22.10;;;;;;5029398;28;20403;-77
2024/01/22 12:06:00;;;;;;;19.05;4.07;;;11.30;25.00;;;;;;5029291;28;20758;-76
2024/01/22 12:08:26;;;;;;;18.38;3.83;;;11.30;20.90;;;;;;5007931;28;20424;-76
2024/01/22 12:10:56;;;;;;;25.77;4.72;;;11.20;20.20;;;;;;5009807;28;20400;-76
2024/01/22 12:13:23;;;;;;;18.67;3.55;;;11.20;19.00;;;;;;5009347;28;20418;-76
2024/01/22 12:15:54;;;;;;;23.95;4.95;;;11.10;21.20;;;;;;5007827;28;20467;-77
2024/01/22 12:18:26;;;;;;;20.27;4.05;;;11.10;22.70;;;;;;5026449;28;20469;-76
2024/01/22 12:20:52;;;;;;;19.20;4.07;;;11.10;23.10;;;;;;5010290;28;20411;-76
2024/01/22 12:23:31;;;;;;;23.52;4.00;;;11.00;23.80;;;;;;5009803;28;20600;-76
2024/01/22 12:25:57;;;;;;;19.45;4.15;;;11.00;25.80;;;;;;5009966;28;20413;-78
2024/01/22 12:28:24;;;;;;;20.38;3.42;;;11.10;27.30;;;;;;5035998;28;20553;-77
2024/01/22 12:31:02;;;;;;;19.10;3.63;;;11.20;23.50;;;;;;5013345;28;20428;-77
2024/01/22 12:33:29;;;;;;;17.98;3.42;;;11.20;16.80;;;;;;5006466;28;20418;-76
2024/01/22 12:36:08;;;;;;;22.30;3.90;;;11.20;12.40;;;;;;5022986;28;20902;-76
2024/01/22 12:38:35;;;;;;;19.38;3.20;;;11.10;1.30;;;;;;5040767;28;20411;-76
2024/01/22 12:41:08;;;;;;;20.42;3.70;;;11.00;10.60;;;;;;5025977;28;20490;-76
2024/01/22 12:43:34;;;;;;;21.13;4.00;;;11.10;7.20;;;;;;5027674;28;20831;-76
2024/01/22 12:46:04;;;;;;;20.30;3.95;;;11.20;5.60;;;;;;5041754;28;20446;-76
2024/01/22 12:48:30;;;;;;;18.00;3.67;;;11.30;1.00;;;;;;5027614;28;20500;-76